Aérodrome :
LOGIN :

S'inscrire | Disclaimer

   EN    FR    IT 

 










Légende :    VFR   VFR Marginal   IFR   IFR Intensif   IFR Très Intensif
Visi : 
Plafond : 
>= 8 km
>= 3000ft
5 à 8 km
1000 à 3000 ft
1500m à 5 km
500 à 1000 ft
800 à 1500m
200 à 500 ft
< 800m
< 200 ft
Symboles :   Orages  Brouillard  Fortes neiges  Fortes précipitations  Vent > 20 kt
SIGMETs :   Divers  Orages  Givrage  Turbulence  Onde Orograph.  Cendres Volcan.







- Altitude de l'aérodrome : 157 ft
- Code IATA : LIL
- Voir les cartes d'approche


LFQQ - Lille Lesquin

DERNIER METAR :
  • 240830Z AUTO 16017G27KT CAVOK 19/11 Q0995 TEMPO 2000 TSRA BKN030CB

METARs EXPIRÉS :
  • 240800Z AUTO 16016KT 120V180 CAVOK 18/11 Q0995 TEMPO 20015G25KT 4000 SHRA BKN030TCU
  • 240730Z AUTO 15012KT CAVOK 17/10 Q0995 TEMPO 20015G25KT 4000 SHRA BKN030TCU
  • 240700Z AUTO 15012KT CAVOK 16/11 Q0995 NOSIG
  • 240630Z AUTO 14009KT CAVOK 15/11 Q0995 NOSIG
  • 240600Z AUTO 13006KT CAVOK 14/11 Q0995 NOSIG

TAF TAF LFQQ
Valide du 24 à 06h jusqu'au 25 à 12h UTC


240500Z 2406/2512 11007KT CAVOK
BECMG 2407/2409 17012KT
TEMPO 2409/2420 20015G25KT 4000 SHRA BKN030TCU
PROB40
TEMPO 2410/2414 20020G35KT 2000 TSRA BKN030CB
TEMPO 2506/2509 16015G25KT 4000 RA BKN013
TEMPO 2510/2512 4000 SHRA BKN020TCU
ATIS : +33 3 20 16 19 54
Pas de NOTAMs connus pour ce terrain.
1 SIGMET publié pour la FIR Paris (LFFF) :
 
Turbulence forte
LFFF SIGMET 1 VALID 240700/241100 LFPW
LFFF PARIS FIR/UIR SEV TURB FCST SE OF LINE N4715 E00430 - N4630 E00400 SFC/FL080 STNR INTSF=



MET'MAP, la Météo Aéronautique d'un coup d'oeil ! - Copyright ORBIFLY Décembre 2007 - Disclaimer

ORBIFLY MET'MAP TEAM :

Programmation & Développement : Alexandra Zaïnal
Conception & Développement : Baudouin d'Aumeries
Co-Programmation & Développement : Marc-Olivier Méhu
Soutien technique & logistique : Manuel Goepfert

Contact : metmap@orbifly.com




SOURCES & CREDITS :

   NOAA